Time;durP1;ratioP1;P1;durP2;ratioP2;P2;SDS_P1;SDS_P2;PMS_P1;PMS_P2;Temp;Humidity;BMP_temperature;BMP_pressure;BME280_temperature;BME280_humidity;BME280_pressure;Samples;Min_cycle;Max_cycle;Signal;HPM_P1;HPM_P2
2021/05/02 00:01:15;;;;;;;12.65;7.78;;;;;;;17.10;66.49;100060.41;1810373;77;21107;-65
2021/05/02 00:03:44;;;;;;;10.48;7.47;;;;;;;17.17;66.48;100063.21;1818076;77;21136;-66
2021/05/02 00:06:12;;;;;;;9.13;6.53;;;;;;;17.19;66.46;100058.03;1807153;77;21137;-65
2021/05/02 00:08:41;;;;;;;9.78;7.53;;;;;;;17.19;66.54;100054.05;1814900;77;21140;-66
2021/05/02 00:11:09;;;;;;;8.75;6.42;;;;;;;17.18;66.60;100051.08;1812787;77;21736;-66
2021/05/02 00:13:38;;;;;;;9.55;6.97;;;;;;;17.20;66.64;100050.91;1775191;79;21135;-66
2021/05/02 00:16:06;;;;;;;9.08;6.25;;;;;;;17.17;66.66;100049.41;1809284;77;21144;-65
2021/05/02 00:18:34;;;;;;;9.53;6.83;;;;;;;17.14;66.62;100044.43;1807819;77;21155;-66
2021/05/02 00:21:02;;;;;;;8.65;5.53;;;;;;;17.07;66.74;100041.64;1810302;77;21124;-65
2021/05/02 00:23:30;;;;;;;8.48;5.65;;;;;;;17.06;66.69;100030.70;1774393;77;21199;-66
2021/05/02 00:25:59;;;;;;;10.80;5.90;;;;;;;17.10;66.62;100023.20;1738138;77;21559;-66
2021/05/02 00:28:29;;;;;;;9.68;6.20;;;;;;;17.11;66.57;100027.50;1783798;79;21140;-66
2021/05/02 00:30:57;;;;;;;9.25;6.15;;;;;;;17.08;66.55;100018.05;1782992;78;21642;-66
2021/05/02 00:33:24;;;;;;;10.93;6.10;;;;;;;17.05;66.52;100021.56;1791274;78;21135;-66
2021/05/02 00:35:52;;;;;;;9.48;5.65;;;;;;;17.00;66.53;100015.95;1784341;78;21527;-66
2021/05/02 00:38:21;;;;;;;9.55;5.15;;;;;;;16.93;66.65;100017.62;1784570;78;21193;-66
2021/05/02 00:40:56;;;;;;;8.08;4.83;;;;;;;16.87;66.94;100013.33;1805323;77;21175;-66
2021/05/02 00:43:34;;;;;;;7.00;4.87;;;;;;;16.87;67.02;100010.67;1783228;80;21143;-66
2021/05/02 00:46:18;;;;;;;8.00;5.15;;;;;;;16.90;66.75;100011.66;1768390;80;21169;-66
2021/05/02 00:49:09;;;;;;;11.43;4.90;;;;;;;16.89;66.68;100003.37;1805316;77;22262;-66
2021/05/02 00:51:40;;;;;;;8.85;5.28;;;;;;;16.88;66.76;99993.73;1767905;80;21151;-66
2021/05/02 00:54:13;;;;;;;8.43;4.75;;;;;;;16.82;66.85;99993.56;1770613;80;21232;-66
2021/05/02 00:57:08;;;;;;;7.72;4.90;;;;;;;16.78;66.96;99993.56;1770353;80;21164;-66
2021/05/02 01:00:06;;;;;;;9.23;5.47;;;;;;;16.71;67.00;99988.14;1691728;82;21917;-66
2021/05/02 01:02:35;;;;;;;7.85;4.92;;;;;;;16.64;67.12;99988.48;1811405;77;21368;-65
2021/05/02 01:05:06;;;;;;;9.10;4.80;;;;;;;16.56;67.38;99981.88;1786523;79;21558;-66
2021/05/02 01:07:36;;;;;;;7.65;4.50;;;;;;;16.57;67.42;99981.70;1773277;79;21536;-66
2021/05/02 01:10:15;;;;;;;7.80;4.72;;;;;;;16.62;67.29;99986.00;1793234;79;21164;-66
2021/05/02 01:12:50;;;;;;;7.05;4.28;;;;;;;16.64;67.27;99976.53;1789725;80;21171;-66
2021/05/02 01:15:24;;;;;;;8.35;4.90;;;;;;;16.65;67.20;99976.88;1795589;79;21381;-66
2021/05/02 01:18:05;;;;;;;8.60;5.35;;;;;;;16.61;67.32;99979.52;1757158;81;21118;-66
2021/05/02 01:20:41;;;;;;;9.90;5.67;;;;;;;16.58;67.34;99984.70;1794760;79;21458;-66
2021/05/02 01:23:26;;;;;;;8.43;5.33;;;;;;;16.53;67.38;99982.55;1762820;80;21158;-66
2021/05/02 01:25:57;;;;;;;7.58;4.67;;;;;;;16.47;67.50;99979.23;1788094;80;21146;-66
2021/05/02 01:28:25;;;;;;;11.73;4.95;;;;;;;16.39;67.70;99973.98;1785160;79;21200;-66
2021/05/02 01:30:53;;;;;;;7.95;4.72;;;;;;;16.39;67.71;99968.67;1765368;80;21179;-66
2021/05/02 01:33:21;;;;;;;7.67;3.70;;;;;;;16.46;67.62;99969.63;1787609;79;21206;-66
2021/05/02 01:35:49;;;;;;;7.20;4.25;;;;;;;16.49;67.61;99972.43;1760387;81;21138;-66
2021/05/02 01:38:17;;;;;;;7.03;4.62;;;;;;;16.50;67.68;99977.58;1798160;79;21136;-66
2021/05/02 01:40:44;;;;;;;8.88;4.35;;;;;;;16.50;67.75;99976.25;1800071;78;21172;-66
2021/05/02 01:43:13;;;;;;;8.70;4.22;;;;;;;16.48;67.77;99974.27;1799845;79;21180;-66
2021/05/02 01:45:41;;;;;;;7.08;4.25;;;;;;;16.49;67.79;99973.76;1803553;79;21101;-65
2021/05/02 01:48:09;;;;;;;6.85;3.77;;;;;;;16.49;67.76;99970.63;1779463;79;21116;-66
2021/05/02 01:50:48;;;;;;;6.30;3.90;;;;;;;16.46;67.84;99969.63;1773476;79;21128;-66
2021/05/02 01:53:15;;;;;;;6.58;3.42;;;;;;;16.49;67.82;99972.43;1745694;80;21461;-66
2021/05/02 01:55:43;;;;;;;8.13;3.27;;;;;;;16.57;67.83;99972.91;1756826;80;21160;-66
2021/05/02 01:58:10;;;;;;;6.40;3.37;;;;;;;16.64;67.74;99967.23;1799674;79;21144;-66
2021/05/02 02:00:45;;;;;;;6.70;3.20;;;;;;;16.69;67.70;99964.88;1799269;77;21160;-66
2021/05/02 02:03:12;;;;;;;6.28;3.33;;;;;;;16.73;67.64;99962.23;1783255;80;21096;-66
2021/05/02 02:05:41;;;;;;;6.00;3.10;;;;;;;16.74;67.56;99963.86;1726457;80;21392;-66
2021/05/02 02:08:08;;;;;;;7.03;2.90;;;;;;;16.75;67.54;99952.76;1745873;82;21591;-66
2021/05/02 02:10:37;;;;;;;5.75;3.12;;;;;;;16.72;67.38;99950.75;1742645;82;21174;-66
2021/05/02 02:13:11;;;;;;;7.08;2.83;;;;;;;16.64;67.34;99946.83;1721326;81;21234;-66
2021/05/02 02:15:39;;;;;;;5.87;2.83;;;;;;;16.63;67.36;99945.16;1745590;81;21192;-66
2021/05/02 02:18:11;;;;;;;5.45;2.65;;;;;;;16.69;67.31;99944.96;1774077;79;21175;-66
2021/05/02 02:20:42;;;;;;;8.33;2.80;;;;;;;16.76;67.21;99942.44;1801884;79;21135;-66
2021/05/02 02:23:25;;;;;;;7.97;2.77;;;;;;;16.79;67.13;99946.08;1803495;78;21155;-66
2021/05/02 02:25:53;;;;;;;5.12;2.62;;;;;;;16.75;67.19;99937.64;1804297;79;21092;-66
2021/05/02 02:28:22;;;;;;;5.65;3.05;;;;;;;16.71;67.28;99945.64;1770426;78;21200;-66
2021/05/02 02:30:58;;;;;;;6.53;3.35;;;;;;;16.66;67.34;99942.17;1779215;79;21231;-66
2021/05/02 02:33:29;;;;;;;5.53;3.08;;;;;;;16.62;67.48;99945.34;1779117;79;21192;-66
2021/05/02 02:35:57;;;;;;;9.05;2.95;;;;;;;16.55;67.62;99944.38;1810017;78;21104;-65
2021/05/02 02:38:26;;;;;;;6.83;2.92;;;;;;;16.52;67.58;99946.39;1811937;79;21180;-66
2021/05/02 02:40:56;;;;;;;5.55;3.10;;;;;;;16.53;67.62;99940.05;1796931;78;21581;-66
2021/05/02 02:43:31;;;;;;;5.10;2.98;;;;;;;16.53;67.78;99940.05;1799328;79;22419;-66
2021/05/02 02:46:10;;;;;;;6.55;3.50;;;;;;;16.50;67.87;99938.25;1764512;79;21223;-66
2021/05/02 02:48:36;;;;;;;7.67;3.15;;;;;;;16.42;67.96;99932.97;1803308;79;21147;-66
2021/05/02 02:51:04;;;;;;;5.90;3.52;;;;;;;16.34;68.04;99932.00;1797972;78;21084;-66
2021/05/02 02:53:33;;;;;;;5.90;3.33;;;;;;;16.30;68.05;99927.20;1776426;79;21643;-65
2021/05/02 02:56:07;;;;;;;6.28;3.45;;;;;;;16.27;68.07;99925.73;1798747;79;21338;-65
2021/05/02 02:59:00;;;;;;;5.30;2.83;;;;;;;16.23;68.11;99923.58;1805947;79;21591;-66
2021/05/02 03:01:27;;;;;;;5.47;2.90;;;;;;;16.22;68.11;99928.05;1759411;79;21172;-66
2021/05/02 03:03:58;;;;;;;7.15;2.90;;;;;;;16.27;67.96;99933.70;1802819;78;21111;-66
2021/05/02 03:06:26;;;;;;;7.92;3.37;;;;;;;16.30;67.99;99937.82;1803003;77;21187;-66
2021/05/02 03:08:56;;;;;;;5.85;3.17;;;;;;;16.30;67.95;99938.64;1776079;79;21623;-66
2021/05/02 03:11:26;;;;;;;5.92;3.58;;;;;;;16.29;68.15;99933.50;1710633;80;21235;-67
2021/05/02 03:13:54;;;;;;;4.95;2.75;;;;;;;16.28;68.25;99939.83;1753766;81;21146;-67
2021/05/02 03:16:28;;;;;;;6.17;3.27;;;;;;;16.27;68.28;99941.66;1756737;79;21199;-67
2021/05/02 03:19:16;;;;;;;5.12;2.87;;;;;;;16.28;68.29;99936.66;1744007;81;21203;-69
2021/05/02 03:22:07;;;;;;;6.05;3.15;;;;;;;16.27;68.41;99941.66;1806688;78;21368;-69
2021/05/02 03:24:40;;;;;;;5.37;2.75;;;;;;;16.32;68.43;99936.66;1736722;80;21157;-67
2021/05/02 03:27:16;;;;;;;5.97;2.80;;;;;;;16.44;68.35;99938.45;1754998;80;21187;-69
2021/05/02 03:29:47;;;;;;;;;;;;;;;16.55;68.37;99936.41;1805439;77;21160;-69
2021/05/02 03:32:15;;;;;;;5.80;2.62;;;;;;;16.61;68.33;99939.20;1804523;79;20236;-68
2021/05/02 03:34:45;;;;;;;5.10;2.58;;;;;;;16.58;68.50;99942.20;1804033;78;21244;-67
2021/05/02 03:37:16;;;;;;;6.33;2.72;;;;;;;16.59;68.52;99947.00;1801096;79;21140;-65
2021/05/02 03:39:49;;;;;;;5.17;2.70;;;;;;;16.59;68.50;99941.69;1772568;79;21312;-66
2021/05/02 03:42:17;;;;;;;4.00;2.10;;;;;;;16.60;68.42;99937.54;1802820;79;21253;-68
2021/05/02 03:44:44;;;;;;;6.87;2.37;;;;;;;16.62;68.43;99936.04;1811944;77;21447;-67
2021/05/02 03:47:13;;;;;;;6.60;2.40;;;;;;;16.71;68.42;99941.66;1789302;77;21178;-67
2021/05/02 03:49:42;;;;;;;5.25;2.10;;;;;;;16.81;68.36;99942.27;1811894;77;21203;-67
2021/05/02 03:52:14;;;;;;;5.83;2.50;;;;;;;16.90;68.30;99945.22;1812955;77;21121;-68
2021/05/02 03:54:44;;;;;;;5.90;2.87;;;;;;;16.96;68.18;99943.68;1817620;77;21144;-68
2021/05/02 04:10:53;;;;;;;5.72;2.72;;;;;;;18.61;64.27;99944.87;1872819;76;24210;-67
2021/05/02 04:13:20;;;;;;;5.72;2.60;;;;;;;18.67;63.60;99942.80;1810834;77;21131;-67
2021/05/02 04:15:48;;;;;;;6.67;2.83;;;;;;;18.56;63.70;99935.61;1788740;80;21212;-67
2021/05/02 04:18:16;;;;;;;6.90;2.92;;;;;;;18.48;63.78;99932.23;1757157;80;21227;-67
2021/05/02 04:20:45;;;;;;;5.35;2.27;;;;;;;18.38;63.99;99929.32;1803895;78;21154;-65
2021/05/02 04:23:12;;;;;;;6.37;2.87;;;;;;;18.29;64.16;99923.78;1796466;78;21588;-65
2021/05/02 04:25:40;;;;;;;5.28;2.58;;;;;;;18.19;64.35;99912.08;1786749;80;21127;-64
2021/05/02 04:28:09;;;;;;;7.37;2.90;;;;;;;18.08;64.46;99911.71;1811536;78;22204;-68
2021/05/02 04:30:37;;;;;;;6.47;2.98;;;;;;;17.98;64.91;99913.30;1786825;80;21241;-68
2021/05/02 04:33:06;;;;;;;5.67;2.42;;;;;;;17.93;65.04;99908.52;1775957;78;21183;-71
2021/05/02 04:35:34;;;;;;;6.00;2.72;;;;;;;17.92;65.17;99913.55;1749743;80;21152;-71
2021/05/02 04:38:01;;;;;;;5.20;2.85;;;;;;;17.92;65.32;99917.53;1791680;78;21210;-71
2021/05/02 04:40:28;;;;;;;6.28;3.42;;;;;;;17.93;65.25;99912.52;1758313;79;21213;-68
2021/05/02 04:42:56;;;;;;;6.58;2.77;;;;;;;17.93;65.09;99915.69;1796674;79;21121;-63
2021/05/02 04:45:24;;;;;;;6.62;2.87;;;;;;;17.90;65.22;99908.06;1798495;79;21148;-60
2021/05/02 04:47:53;;;;;;;8.73;3.77;;;;;;;17.85;65.29;99905.91;1788078;80;21218;-65
2021/05/02 04:50:20;;;;;;;5.15;2.67;;;;;;;17.80;65.33;99907.81;1789212;78;21583;-65
2021/05/02 04:52:48;;;;;;;7.87;3.20;;;;;;;17.84;65.30;99910.93;1789185;80;21221;-65
2021/05/02 04:55:15;;;;;;;6.65;2.83;;;;;;;17.90;65.20;99916.87;1758673;78;21175;-64
2021/05/02 04:57:43;;;;;;;7.33;3.00;;;;;;;17.96;65.26;99921.47;1819155;78;21156;-66
2021/05/02 05:00:12;;;;;;;5.70;2.37;;;;;;;17.99;65.12;99921.62;1811915;78;21227;-64
2021/05/02 05:02:39;;;;;;;6.87;3.00;;;;;;;18.00;64.95;99918.78;1784936;78;21151;-63
2021/05/02 05:05:08;;;;;;;13.45;4.17;;;;;;;18.02;64.91;99919.91;1742005;80;22205;-63
2021/05/02 05:07:36;;;;;;;5.90;3.35;;;;;;;18.03;65.03;99918.09;1761256;78;21609;-62
2021/05/02 05:10:07;;;;;;;8.03;3.00;;;;;;;18.06;64.97;99921.21;1751660;79;21219;-64
2021/05/02 05:12:37;;;;;;;5.80;2.92;;;;;;;18.11;65.10;99914.02;1760366;81;21203;-63
2021/05/02 05:15:07;;;;;;;6.17;2.83;;;;;;;18.18;64.97;99913.59;1774054;78;21092;-64
2021/05/02 05:17:34;;;;;;;5.65;3.08;;;;;;;18.26;64.92;99914.83;1792501;80;21531;-64
2021/05/02 05:20:04;;;;;;;5.55;2.70;;;;;;;18.32;64.76;99915.41;1783444;78;21140;-63
2021/05/02 05:22:32;;;;;;;6.75;3.37;;;;;;;18.36;64.61;99921.22;1761201;80;21132;-64
2021/05/02 05:25:00;;;;;;;5.70;3.20;;;;;;;18.35;64.58;99916.37;1766728;78;21183;-64
2021/05/02 05:27:28;;;;;;;6.50;3.20;;;;;;;18.34;64.52;99923.21;1778504;80;21153;-67
2021/05/02 05:29:57;;;;;;;5.62;3.05;;;;;;;18.35;64.41;99919.55;1789848;79;21171;-70
2021/05/02 05:32:25;;;;;;;7.25;3.50;;;;;;;18.31;64.39;99912.95;1782447;79;21214;-63
2021/05/02 05:34:52;;;;;;;7.08;2.90;;;;;;;18.27;64.72;99913.80;1790514;79;21180;-66
2021/05/02 05:37:22;;;;;;;7.17;3.37;;;;;;;18.31;64.76;99911.11;1790209;78;21135;-65
2021/05/02 05:39:52;;;;;;;6.05;3.12;;;;;;;18.43;64.69;99909.31;1785384;79;21707;-63
2021/05/02 05:42:20;;;;;;;6.00;2.92;;;;;;;18.50;64.63;99904.89;1782494;78;22470;-63
2021/05/02 05:44:49;;;;;;;5.90;3.08;;;;;;;18.60;64.48;99907.27;1786930;78;21199;-63
2021/05/02 05:47:17;;;;;;;9.38;3.20;;;;;;;18.66;64.65;99903.83;1776347;79;21128;-67
2021/05/02 05:49:46;;;;;;;9.83;3.60;;;;;;;18.74;64.31;99898.39;1773319;80;21662;-64
2021/05/02 05:52:14;;;;;;;5.17;2.83;;;;;;;18.81;64.13;99891.31;1806111;78;21176;-62
2021/05/02 05:54:41;;;;;;;6.83;3.40;;;;;;;18.90;64.00;99888.05;1788861;79;21222;-60
2021/05/02 05:57:09;;;;;;;5.50;3.25;;;;;;;18.96;63.58;99893.94;1794290;78;21188;-60
2021/05/02 05:59:37;;;;;;;5.40;2.83;;;;;;;19.01;63.71;99891.52;1772252;79;21179;-69
2021/05/02 06:02:05;;;;;;;5.62;2.80;;;;;;;19.16;63.33;99887.47;1774064;79;21180;-60
2021/05/02 06:04:32;;;;;;;9.53;3.58;;;;;;;19.34;63.29;99892.35;1778463;80;21168;-69
2021/05/02 06:07:01;;;;;;;7.15;3.45;;;;;;;19.50;62.57;99892.57;1772474;80;21406;-58
2021/05/02 06:09:28;;;;;;;9.43;3.67;;;;;;;19.58;61.49;99896.95;1764150;80;21215;-66
2021/05/02 06:11:56;;;;;;;6.55;4.12;;;;;;;19.53;61.36;99886.86;1762313;80;21238;-68
2021/05/02 06:14:24;;;;;;;7.28;3.98;;;;;;;19.48;61.05;99883.45;1754105;80;21168;-59
2021/05/02 06:16:53;;;;;;;7.97;4.72;;;;;;;19.41;61.03;99875.88;1788239;80;21133;-59
2021/05/02 06:19:20;;;;;;;8.73;4.55;;;;;;;19.29;61.22;99869.44;1755865;80;21239;-64
2021/05/02 06:21:49;;;;;;;6.87;4.28;;;;;;;19.27;61.82;99874.14;1781177;78;21241;-59
2021/05/02 06:24:17;;;;;;;6.10;3.95;;;;;;;19.24;61.12;99878.00;1821040;78;21202;-59
2021/05/02 06:26:44;;;;;;;8.78;4.05;;;;;;;19.23;61.04;99871.04;1820453;78;21326;-63
2021/05/02 06:29:12;;;;;;;9.80;4.40;;;;;;;19.29;61.01;99873.44;1817732;78;21087;-64
2021/05/02 06:31:40;;;;;;;9.20;4.53;;;;;;;19.29;60.67;99874.77;1808876;78;22683;-66
2021/05/02 06:34:08;;;;;;;9.28;4.45;;;;;;;19.27;60.69;99878.14;1774184;79;21167;-60
2021/05/02 06:36:36;;;;;;;7.50;4.20;;;;;;;19.20;60.82;99882.09;1797961;78;21169;-66
2021/05/02 06:39:04;;;;;;;7.92;4.58;;;;;;;19.14;60.97;99876.69;1753910;80;21175;-67
2021/05/02 06:41:31;;;;;;;7.42;4.30;;;;;;;19.09;61.23;99890.59;1786273;79;21146;-68
2021/05/02 06:44:01;;;;;;;8.75;3.90;;;;;;;19.06;61.26;99894.48;1790840;80;21810;-65
2021/05/02 06:46:30;;;;;;;9.68;4.17;;;;;;;19.02;61.41;99900.38;1807043;77;21638;-70
2021/05/02 06:49:03;;;;;;;10.18;4.97;;;;;;;19.00;61.42;99907.74;1770882;78;21179;-63
2021/05/02 06:51:31;;;;;;;8.38;3.87;;;;;;;18.98;61.47;99903.92;1802491;78;21634;-61
2021/05/02 06:53:58;;;;;;;10.45;4.58;;;;;;;19.00;61.36;99920.55;1799206;78;21105;-63
2021/05/02 06:56:27;;;;;;;8.75;4.60;;;;;;;19.01;61.83;99923.52;1809073;78;22829;-69
2021/05/02 06:58:55;;;;;;;8.43;5.15;;;;;;;18.99;61.48;99929.55;1794122;79;21502;-69
2021/05/02 07:01:23;;;;;;;7.92;5.10;;;;;;;18.91;61.41;99926.52;1806099;78;21190;-69
2021/05/02 07:04:03;;;;;;;10.85;5.45;;;;;;;18.84;61.49;99912.27;1777810;79;21457;-64
2021/05/02 07:06:34;;;;;;;8.93;4.62;;;;;;;18.76;61.86;99915.02;1777635;80;21148;-68
2021/05/02 07:09:04;;;;;;;8.43;5.30;;;;;;;18.70;62.04;99915.27;1777157;79;21389;-70
2021/05/02 07:11:32;;;;;;;8.43;4.85;;;;;;;18.64;62.16;99908.02;1791322;79;21149;-66
2021/05/02 07:14:02;;;;;;;9.33;5.25;;;;;;;18.67;62.35;99908.98;1812084;78;21632;-64
2021/05/02 07:16:30;;;;;;;8.93;4.87;;;;;;;18.75;61.91;99903.53;1813792;78;21184;-70
2021/05/02 07:18:58;;;;;;;10.20;5.58;;;;;;;18.76;61.74;99903.02;1808798;78;21131;-66
2021/05/02 07:21:28;;;;;;;9.40;4.67;;;;;;;18.70;61.74;99899.28;1800108;79;21246;-65
2021/05/02 07:23:56;;;;;;;9.73;5.53;;;;;;;18.66;61.87;99897.17;1782772;80;21188;-63
2021/05/02 07:26:23;;;;;;;11.03;5.25;;;;;;;18.60;62.11;99901.42;1768854;80;21113;-64
2021/05/02 07:28:52;;;;;;;10.85;5.72;;;;;;;18.59;62.50;99914.41;1781353;80;21162;-69
2021/05/02 07:31:19;;;;;;;9.70;6.15;;;;;;;18.59;62.37;99915.73;1780405;80;21212;-61
2021/05/02 07:33:47;;;;;;;9.93;4.65;;;;;;;18.57;62.35;99917.25;1788180;79;21183;-67
2021/05/02 07:36:15;;;;;;;9.38;5.50;;;;;;;18.58;62.57;99916.77;1819256;77;21175;-67
2021/05/02 07:38:42;;;;;;;10.90;6.33;;;;;;;18.63;62.23;99917.04;1785216;80;21116;-62
2021/05/02 07:41:11;;;;;;;13.18;6.30;;;;;;;18.62;62.01;99915.38;1777676;80;21179;-67
2021/05/02 07:43:40;;;;;;;9.38;5.97;;;;;;;18.57;62.28;99911.11;1787764;79;21166;-69
2021/05/02 07:46:08;;;;;;;13.30;5.83;;;;;;;18.54;62.33;99909.66;1821026;78;21792;-68
2021/05/02 07:48:36;;;;;;;9.48;6.33;;;;;;;18.49;62.54;99912.55;1789168;79;21171;-68
2021/05/02 07:51:06;;;;;;;17.32;6.87;;;;;;;18.44;62.57;99917.13;1785093;78;21200;-66
2021/05/02 07:53:33;;;;;;;10.20;5.95;;;;;;;18.41;63.01;99912.64;1806579;78;21112;-61
2021/05/02 07:56:01;;;;;;;11.28;7.00;;;;;;;18.43;63.23;99912.80;1809950;77;21595;-60
2021/05/02 07:58:30;;;;;;;9.88;6.08;;;;;;;18.53;63.08;99908.52;1790053;78;21254;-66
2021/05/02 08:00:57;;;;;;;9.50;6.42;;;;;;;18.58;62.75;99908.78;1780169;79;21200;-64
2021/05/02 08:03:26;;;;;;;11.08;7.42;;;;;;;18.56;62.69;99900.97;1783917;80;21152;-66
2021/05/02 08:05:53;;;;;;;13.50;7.42;;;;;;;18.52;62.88;99901.00;1799830;79;21559;-61
2021/05/02 08:08:21;;;;;;;9.85;6.67;;;;;;;18.51;62.94;99905.22;1815203;78;21136;-66
2021/05/02 08:10:51;;;;;;;12.33;7.95;;;;;;;18.50;63.24;99895.56;1815932;78;21117;-62
2021/05/02 08:13:20;;;;;;;17.52;9.80;;;;;;;18.50;62.42;99894.23;1817271;78;21235;-63
2021/05/02 08:15:49;;;;;;;11.78;8.30;;;;;;;18.45;62.35;99879.31;1791502;78;21209;-65
2021/05/02 08:18:16;;;;;;;14.60;8.60;;;;;;;18.41;62.44;99882.86;1796656;78;21463;-65
2021/05/02 08:20:44;;;;;;;13.38;8.13;;;;;;;18.42;62.57;99887.16;1752373;80;21197;-62
2021/05/02 08:23:11;;;;;;;16.12;8.85;;;;;;;18.49;62.43;99893.41;1773130;78;21128;-60
2021/05/02 08:25:39;;;;;;;12.63;8.55;;;;;;;18.54;62.29;99886.17;1786696;78;21196;-62
2021/05/02 08:28:07;;;;;;;12.03;8.48;;;;;;;18.50;62.45;99889.72;1782849;78;21189;-66
2021/05/02 08:30:36;;;;;;;15.30;8.83;;;;;;;18.48;62.53;99880.28;1824640;77;21151;-66
2021/05/02 08:33:04;;;;;;;15.03;9.20;;;;;;;18.45;62.43;99870.80;1761012;80;21210;-64
2021/05/02 08:35:33;;;;;;;15.00;9.00;;;;;;;18.43;62.57;99863.52;1772838;78;21148;-63
2021/05/02 08:38:01;;;;;;;16.10;9.98;;;;;;;18.44;62.45;99853.67;1791634;80;21178;-65
2021/05/02 08:40:28;;;;;;;14.28;8.48;;;;;;;18.44;62.34;99847.02;1787280;78;21162;-65
2021/05/02 08:42:56;;;;;;;11.75;7.58;;;;;;;18.42;62.36;99851.20;1788786;78;21192;-61
2021/05/02 08:45:23;;;;;;;12.40;8.93;;;;;;;18.44;62.32;99853.67;1762886;80;21155;-61
2021/05/02 08:47:51;;;;;;;16.50;8.58;;;;;;;18.52;62.35;99849.57;1786222;78;21160;-61
2021/05/02 08:50:19;;;;;;;13.78;8.93;;;;;;;18.58;62.24;99851.49;1783610;78;21623;-62
2021/05/02 08:52:47;;;;;;;14.65;8.50;;;;;;;18.60;62.07;99831.33;1794596;80;21645;-64
2021/05/02 08:55:14;;;;;;;12.07;8.78;;;;;;;18.60;61.89;99821.48;1794550;78;21231;-61
2021/05/02 08:57:42;;;;;;;16.62;8.75;;;;;;;18.56;61.99;99808.23;1766248;80;21131;-62
2021/05/02 09:00:10;;;;;;;15.45;9.68;;;;;;;18.54;62.57;99808.91;1807817;78;21381;-61
2021/05/02 09:02:38;;;;;;;13.43;9.10;;;;;;;18.52;62.79;99816.27;1820962;77;21156;-61
2021/05/02 09:05:07;;;;;;;15.08;9.05;;;;;;;18.53;63.32;99819.27;1827289;77;21160;-57
2021/05/02 09:07:43;;;;;;;14.83;8.03;;;;;;;18.59;63.27;99815.83;1821502;77;21120;-57
2021/05/02 09:10:11;;;;;;;11.48;7.90;;;;;;;18.72;63.00;99813.81;1760283;80;21164;-57
2021/05/02 09:12:40;;;;;;;15.58;9.65;;;;;;;18.80;62.99;99817.69;1792369;80;21206;-57
2021/05/02 09:15:13;;;;;;;15.58;9.58;;;;;;;18.83;62.74;99817.83;1823199;78;21631;-57
2021/05/02 09:18:36;;;;;;;14.00;9.98;;;;;;;18.91;62.59;99813.70;1808278;77;22471;-56
2021/05/02 09:20:43;;;;;;;16.12;9.65;;;;;;;18.93;62.55;99819.70;1783674;79;21180;-57
2021/05/02 09:23:12;;;;;;;14.70;10.48;;;;;;;18.94;62.17;99815.48;1755632;80;21156;-58
2021/05/02 09:25:53;;;;;;;14.35;9.63;;;;;;;18.92;62.25;99808.19;1782870;78;21349;-58
2021/05/02 09:28:47;;;;;;;15.88;10.60;;;;;;;18.97;62.40;99800.95;1784882;80;21148;-57
2021/05/02 09:31:31;;;;;;;15.45;10.08;;;;;;;18.99;62.12;99803.44;1712783;81;21175;-57
2021/05/02 09:34:11;;;;;;;12.70;8.08;;;;;;;18.98;62.22;99797.28;1748967;80;21599;-57
2021/05/02 09:37:04;;;;;;;18.42;8.65;;;;;;;19.06;61.87;99799.81;1706974;82;21334;-56
2021/05/02 09:39:48;;;;;;;13.48;8.93;;;;;;;19.18;61.82;99801.45;1717980;81;21057;-57
2021/05/02 09:42:25;;;;;;;12.70;8.83;;;;;;;19.27;61.44;99796.27;1707759;81;21185;-58
2021/05/02 09:44:57;;;;;;;11.70;8.50;;;;;;;19.30;61.87;99797.22;1712975;81;21204;-57
2021/05/02 09:47:36;;;;;;;17.55;8.85;;;;;;;19.33;62.00;99800.52;1737920;81;21127;-61
2021/05/02 09:50:13;;;;;;;14.75;8.85;;;;;;;19.35;61.84;99804.65;1745926;80;21244;-59
2021/05/02 09:53:02;;;;;;;13.28;9.23;;;;;;;19.39;61.75;99808.56;1736636;81;21212;-60
2021/05/02 09:55:45;;;;;;;13.43;9.53;;;;;;;19.40;61.90;99814.23;1736473;81;21226;-61
2021/05/02 09:58:19;;;;;;;12.55;9.08;;;;;;;19.42;62.30;99818.85;1745467;81;21219;-61
2021/05/02 10:00:56;;;;;;;15.35;9.63;;;;;;;19.45;62.38;99822.47;1718598;81;21135;-61
2021/05/02 10:03:26;;;;;;;14.47;9.95;;;;;;;19.51;62.27;99824.86;1709342;82;21309;-61
2021/05/02 10:05:58;;;;;;;21.17;10.90;;;;;;;19.51;62.51;99830.20;1736189;81;21595;-62
2021/05/02 10:08:28;;;;;;;15.55;10.43;;;;;;;19.48;62.91;99834.58;1736377;81;21123;-64
2021/05/02 10:10:57;;;;;;;15.63;9.85;;;;;;;19.45;63.36;99844.30;1739423;81;21192;-61
2021/05/02 10:13:25;;;;;;;13.55;9.53;;;;;;;19.40;63.17;99838.23;1725513;81;21132;-62
2021/05/02 10:15:53;;;;;;;16.00;9.73;;;;;;;19.34;63.39;99842.19;1709540;81;21217;-62
2021/05/02 10:18:21;;;;;;;13.90;9.33;;;;;;;19.31;63.57;99840.72;1742623;82;21217;-61
2021/05/02 10:20:49;;;;;;;15.03;8.73;;;;;;;19.33;63.69;99838.67;1739672;80;21125;-61
2021/05/02 10:23:16;;;;;;;17.80;10.25;;;;;;;19.39;63.98;99837.91;1707840;82;21132;-61
2021/05/02 10:25:49;;;;;;;18.25;10.48;;;;;;;19.47;64.32;99832.43;1740752;82;21192;-62
2021/05/02 10:28:21;;;;;;;14.00;9.75;;;;;;;19.50;64.72;99835.20;1769836;79;21205;-61
2021/05/02 10:30:51;;;;;;;13.93;9.58;;;;;;;19.46;64.48;99833.44;1757260;79;21141;-63
2021/05/02 10:33:38;;;;;;;14.58;9.03;;;;;;;19.38;64.89;99840.25;1745741;80;21777;-62
2021/05/02 10:36:10;;;;;;;13.10;9.73;;;;;;;19.33;65.16;99845.86;1776188;79;21114;-66
2021/05/02 10:38:53;;;;;;;12.78;7.97;;;;;;;19.30;65.31;99835.09;1774304;79;21183;-64
2021/05/02 10:41:38;;;;;;;11.22;7.97;;;;;;;19.36;64.77;99826.29;1751586;79;21168;-63
2021/05/02 10:44:16;;;;;;;15.23;9.05;;;;;;;19.47;64.66;99825.77;1777743;79;21151;-58
2021/05/02 10:46:57;;;;;;;15.43;8.78;;;;;;;19.56;64.95;99818.95;1797121;79;21126;-62
2021/05/02 10:49:31;;;;;;;14.63;8.90;;;;;;;19.63;65.09;99821.14;1749732;79;21136;-61
2021/05/02 10:52:30;;;;;;;14.90;8.98;;;;;;;19.66;64.51;99822.91;1770403;79;21149;-59
2021/05/02 10:55:15;;;;;;;15.65;9.28;;;;;;;19.66;64.41;99816.75;1753470;79;21204;-60
2021/05/02 10:57:43;;;;;;;12.33;8.03;;;;;;;19.66;64.46;99819.42;1777230;79;21148;-62
2021/05/02 11:00:12;;;;;;;15.25;8.80;;;;;;;19.66;64.43;99815.41;1745788;80;21655;-61
2021/05/02 11:02:45;;;;;;;13.08;8.43;;;;;;;19.67;64.14;99815.73;1773178;79;21168;-65
2021/05/02 11:05:15;;;;;;;17.77;9.43;;;;;;;19.76;64.39;99814.58;1757897;80;21179;-61
2021/05/02 11:07:44;;;;;;;17.25;10.58;;;;;;;19.81;63.83;99813.47;1775640;79;21381;-60
2021/05/02 11:10:15;;;;;;;22.52;9.75;;;;;;;19.81;63.77;99805.98;1748403;82;21190;-60
2021/05/02 11:12:46;;;;;;;21.35;11.65;;;;;;;19.79;63.90;99800.84;1762248;79;21181;-60
2021/05/02 11:15:31;;;;;;;16.40;10.40;;;;;;;19.80;63.81;99797.16;1779187;80;21191;-61
2021/05/02 11:17:58;;;;;;;12.85;10.28;;;;;;;19.79;63.82;99795.50;1779437;79;21121;-62
2021/05/02 11:20:50;;;;;;;16.93;10.23;;;;;;;19.78;64.09;99783.16;1771384;79;21168;-60
2021/05/02 11:23:18;;;;;;;12.88;9.33;;;;;;;19.84;64.44;99784.23;1706206;82;21159;-61
2021/05/02 11:25:58;;;;;;;16.62;9.35;;;;;;;19.97;64.63;99768.77;1778061;79;21215;-60
2021/05/02 11:28:44;;;;;;;15.30;9.20;;;;;;;20.03;64.10;99755.45;1768528;79;21157;-59
2021/05/02 11:31:06;;;;;;;12.55;9.80;;;;;;;20.07;63.67;99753.19;1778707;80;21182;-60
2021/05/02 11:33:35;;;;;;;19.35;9.35;;;;;;;20.09;63.49;99761.85;1781197;80;21204;-57
2021/05/02 11:36:05;;;;;;;16.12;9.60;;;;;;;20.08;63.92;99761.53;1797091;79;21176;-62
2021/05/02 11:38:39;;;;;;;14.03;9.33;;;;;;;20.05;63.91;99765.92;1817349;79;21172;-59
2021/05/02 11:41:08;;;;;;;14.90;8.80;;;;;;;20.01;64.13;99752.16;1792434;79;21536;-63
2021/05/02 11:43:39;;;;;;;13.62;9.00;;;;;;;20.03;64.25;99754.63;1784687;79;21169;-62
2021/05/02 11:46:17;;;;;;;17.73;9.30;;;;;;;20.05;64.21;99753.91;1751276;79;21235;-61
2021/05/02 11:48:46;;;;;;;16.73;10.18;;;;;;;20.07;64.41;99752.38;1767716;79;21632;-67
2021/05/02 11:51:19;;;;;;;17.00;9.60;;;;;;;20.07;64.60;99741.17;1767759;79;21217;-68
2021/05/02 11:53:52;;;;;;;15.60;9.10;;;;;;;20.04;64.78;99742.94;1779517;79;21561;-60
2021/05/02 11:56:32;;;;;;;16.55;9.58;;;;;;;19.99;64.99;99748.05;1764638;80;21163;-60
2021/05/02 11:59:07;;;;;;;12.28;7.70;;;;;;;19.95;64.88;99744.13;1783584;79;21203;-60
2021/05/02 12:01:39;;;;;;;13.20;7.12;;;;;;;19.84;64.75;99747.67;1782263;79;21133;-60